Terminal Aerodrome Forecast
Issued by NWS

Home | Current Version | Previous Version | Text Only | Print | Product List | Glossary On
Versions: 1 2 3 4 5 6 7 8 9 10 11 12 13 14
000
FTUS46 KSEW 230520
TAFHQM
TAF
KHQM 230520Z 2306/2406 08003KT 5SM BR BKN030 OVC060
     FM230900 07003KT 1/2SM FG BKN003
     FM231500 06005KT 4SM BR OVC020
     FM231900 10007KT P6SM SCT100 BKN200=

USA.gov is the U.S. government's official web portal to all federal, state and local government web resources and services.